createdAt,value
2016-06-05T13:23:27.927Z,1000.56
2016-06-05T13:24:27.922Z,1000.51
2016-06-05T13:25:27.979Z,1000.55
2016-06-05T13:26:28.021Z,1000.5
2016-06-05T13:27:28.172Z,1000.49
2016-06-05T13:28:28.113Z,1000.54
2016-06-05T13:29:28.156Z,1000.52
2016-06-05T13:30:28.183Z,1000.57
2016-06-05T13:31:28.209Z,1000.55
2016-06-05T13:32:28.252Z,1000.58
2016-06-05T13:34:28.313Z,1000.55
2016-06-05T13:35:28.335Z,1000.55
2016-06-05T13:36:28.357Z,1000.57
2016-06-05T13:37:28.393Z,1000.54
2016-06-05T13:38:28.413Z,1000.58
2016-06-05T13:39:28.433Z,1000.57
2016-06-05T13:40:28.468Z,1000.52
2016-06-05T13:41:28.487Z,1000.57
2016-06-05T13:42:28.507Z,1000.6
2016-06-05T13:43:28.541Z,1000.58
2016-06-05T13:44:28.560Z,1000.62
2016-06-05T13:45:28.595Z,1000.65
2016-06-05T13:46:28.612Z,1000.65
2016-06-05T13:47:28.632Z,1000.68
2016-06-05T13:48:28.666Z,1000.64
2016-06-05T13:49:28.684Z,1000.65
2016-06-05T13:50:28.702Z,1000.65
2016-06-05T13:51:28.737Z,1000.63
2016-06-05T13:52:28.754Z,1000.64
2016-06-05T13:53:28.789Z,1000.64
2016-06-05T13:54:28.807Z,1000.63
2016-06-05T13:55:28.826Z,1000.65
2016-06-05T13:56:28.860Z,1000.66
2016-06-05T13:57:28.878Z,1000.66
2016-06-05T13:58:28.912Z,1000.67
2016-06-05T13:59:28.931Z,1000.69
2016-06-05T14:00:28.948Z,1000.69
2016-06-05T14:01:28.982Z,1000.7
2016-06-05T14:02:29.000Z,1000.68
2016-06-05T14:03:29.034Z,1000.68
2016-06-05T14:04:29.053Z,1000.66
2016-06-05T14:05:29.072Z,1000.67
2016-06-05T14:06:29.105Z,1000.63
2016-06-05T14:07:29.123Z,1000.64
2016-06-05T14:08:29.158Z,1000.65
2016-06-05T14:09:29.175Z,1000.67
2016-06-05T14:11:29.227Z,1000.67
2016-06-05T14:12:29.261Z,1000.62
2016-06-05T14:14:29.299Z,1000.62
2016-06-05T14:15:29.332Z,1000.6
2016-06-05T14:16:29.367Z,1000.57
2016-06-05T14:18:29.403Z,1000.53
2016-06-05T14:19:29.437Z,1000.54
2016-06-05T14:20:29.471Z,1000.5
2016-06-05T14:21:29.489Z,1000.56
2016-06-05T14:22:29.508Z,1000.56
2016-06-05T14:23:29.541Z,1000.53
2016-06-05T14:24:32.576Z,1000.51
2016-06-05T14:25:29.593Z,1000.54
2016-06-05T14:26:29.612Z,1000.58
2016-06-05T14:27:29.646Z,1000.55
2016-06-05T14:28:29.665Z,1000.57
2016-06-05T14:30:29.717Z,1000.54
2016-06-05T14:31:29.750Z,1000.56
2016-06-05T14:33:29.802Z,1000.49
2016-06-05T14:35:29.855Z,1000.48
2016-06-05T14:36:29.873Z,1000.35
2016-06-05T14:37:29.908Z,1000.35
2016-06-05T14:38:29.925Z,1000.36
2016-06-05T14:40:29.978Z,1000.32
2016-06-05T14:41:30.011Z,1000.28
2016-06-05T14:45:30.116Z,1000.28
2016-06-05T14:46:30.135Z,1000.24
2016-06-05T14:47:30.152Z,1000.16
2016-06-05T14:48:30.187Z,1000.19
2016-06-05T14:49:30.205Z,1000.15
2016-06-05T14:50:30.239Z,1000.17
2016-06-05T14:53:30.309Z,1000.24
2016-06-05T14:54:30.344Z,1000.19
2016-06-05T14:55:30.363Z,1000.21
2016-06-05T14:56:30.396Z,1000.27
2016-06-05T14:57:30.415Z,1000.26
2016-06-05T14:58:30.448Z,1000.26
2016-06-05T14:59:30.467Z,1000.38
2016-06-05T15:00:30.500Z,1000.35
2016-06-05T15:01:30.519Z,1000.46
2016-06-05T15:02:30.553Z,1000.45
2016-06-05T15:03:30.570Z,1000.45
2016-06-05T15:04:30.589Z,1000.48
2016-06-05T15:05:30.623Z,1000.45
2016-06-05T15:06:30.642Z,1000.44
2016-06-05T15:07:30.675Z,1000.47
2016-06-05T15:08:30.694Z,1000.46
2016-06-05T15:09:30.728Z,1000.47
2016-06-05T15:10:30.762Z,1000.41
2016-06-05T15:13:31.441Z,1000.39
2016-06-05T15:15:30.885Z,1000.38
2016-06-05T15:17:30.936Z,1000.39
2016-06-05T15:18:33.971Z,1000.45
2016-06-05T15:20:31.007Z,1000.38
2016-06-05T15:21:31.041Z,1000.39
2016-06-05T15:23:31.078Z,1000.37
2016-06-05T15:25:31.146Z,1000.37
2016-06-05T15:27:31.198Z,1000.42
2016-06-05T15:28:31.216Z,1000.44
2016-06-05T15:29:31.234Z,1000.46
2016-06-05T15:30:31.268Z,1000.48
2016-06-05T15:31:31.287Z,1000.46
2016-06-05T15:32:31.320Z,1000.47
2016-06-05T15:34:31.357Z,1000.48
2016-06-05T15:35:31.392Z,1000.47
2016-06-05T15:36:31.410Z,1000.47
2016-06-05T15:37:31.444Z,1000.45
2016-06-05T15:38:31.461Z,1000.46
2016-06-05T15:40:31.530Z,1000.43
2016-06-05T15:41:31.547Z,1000.38
2016-06-05T15:42:31.567Z,1000.41
2016-06-05T15:43:31.616Z,1000.39
2016-06-05T15:44:31.619Z,1000.37
2016-06-05T15:45:31.636Z,1000.38
2016-06-05T15:46:31.672Z,1000.42
2016-06-05T15:47:31.689Z,1000.44
2016-06-05T15:48:31.723Z,1000.44
2016-06-05T15:49:31.741Z,1000.49
2016-06-05T15:50:31.775Z,1000.5
2016-06-05T15:51:31.794Z,1000.49
2016-06-05T15:52:31.828Z,1000.5
2016-06-05T15:53:31.846Z,1000.51
2016-06-05T15:54:31.865Z,1000.55
2016-06-05T15:55:31.882Z,1000.5
2016-06-05T15:56:31.916Z,1000.49
2016-06-05T15:57:31.935Z,1000.5
2016-06-05T15:58:32.641Z,1000.49
2016-06-05T15:59:32.003Z,1000.49
2016-06-05T16:00:32.021Z,1000.48
2016-06-05T16:01:32.040Z,1000.46
2016-06-05T16:02:32.074Z,1000.5
2016-06-05T16:03:32.092Z,1000.52
2016-06-05T16:04:32.126Z,1000.54
2016-06-05T16:05:32.144Z,1000.54
2016-06-05T16:06:32.179Z,1000.55
2016-06-05T16:07:32.211Z,1000.6
2016-06-05T16:08:32.214Z,1000.64
2016-06-05T16:09:32.248Z,1000.71
2016-06-05T16:10:32.283Z,1000.75
2016-06-05T16:11:32.300Z,1000.72
2016-06-05T16:12:32.334Z,1000.77
2016-06-05T16:13:32.353Z,1000.77
2016-06-05T16:14:32.372Z,1000.73
2016-06-05T16:15:32.406Z,1000.73
2016-06-05T16:16:32.424Z,1000.77
2016-06-05T16:17:32.458Z,1000.75
2016-06-05T16:18:32.475Z,1000.73
2016-06-05T16:19:32.510Z,1000.68
2016-06-05T16:20:32.528Z,1000.74
2016-06-05T16:21:32.562Z,1000.76
2016-06-05T16:22:32.580Z,1000.72
2016-06-05T16:23:32.614Z,1000.73
2016-06-05T16:24:32.632Z,1000.73
2016-06-05T16:25:32.666Z,1000.79
2016-06-05T16:26:32.685Z,1000.73
2016-06-05T16:27:32.719Z,1000.72
2016-06-05T16:28:32.737Z,1000.78
2016-06-05T16:29:32.755Z,1000.75
2016-06-05T16:30:32.790Z,1000.74
2016-06-05T16:31:33.167Z,1000.78
2016-06-05T16:32:32.842Z,1000.73
2016-06-05T16:33:32.875Z,1000.75
2016-06-05T16:34:32.893Z,1000.75
2016-06-05T16:35:32.928Z,1000.78
2016-06-05T16:36:32.946Z,1000.78
2016-06-05T16:37:32.981Z,1000.81
2016-06-05T16:38:32.998Z,1000.78
2016-06-05T16:39:33.032Z,1000.79
2016-06-05T16:40:33.050Z,1000.78
2016-06-05T16:41:33.084Z,1000.76
2016-06-05T16:42:33.103Z,1000.78
2016-06-05T16:43:33.167Z,1000.74
2016-06-05T16:44:33.155Z,1000.73
2016-06-05T16:45:33.189Z,1000.69
2016-06-05T16:46:33.208Z,1000.71
2016-06-05T16:47:33.242Z,1000.69
2016-06-05T16:48:33.260Z,1000.69
2016-06-05T16:49:33.294Z,1000.7
2016-06-05T16:50:33.311Z,1000.74
2016-06-05T16:51:33.346Z,1000.7
2016-06-05T16:52:33.364Z,1000.72
2016-06-05T16:53:33.398Z,1000.73
2016-06-05T16:54:33.417Z,1000.74
2016-06-05T16:55:33.450Z,1000.76
2016-06-05T16:56:33.468Z,1000.75
2016-06-05T16:57:33.596Z,1000.77
2016-06-05T16:58:33.990Z,1000.83
2016-06-05T16:59:33.617Z,1000.84
2016-06-05T17:00:33.589Z,1000.86
2016-06-05T17:01:33.591Z,1000.86
2016-06-05T17:02:33.704Z,1000.84
2016-06-05T17:03:33.644Z,1000.86
2016-06-05T17:04:33.678Z,1000.9
2016-06-05T17:05:33.695Z,1000.86
2016-06-05T17:06:33.729Z,1000.85
2016-06-05T17:07:33.748Z,1000.87
2016-06-05T17:08:33.859Z,1000.9
2016-06-05T17:09:33.800Z,1000.88
2016-06-05T17:10:33.819Z,1000.88
2016-06-05T17:11:33.853Z,1000.91
2016-06-05T17:12:33.886Z,1000.89
2016-06-05T17:13:33.905Z,1000.89
2016-06-05T17:16:33.975Z,1000.86
2016-06-05T17:18:34.091Z,1000.87
2016-06-05T17:19:34.078Z,1000.82
2016-06-05T17:20:34.081Z,1000.82
2016-06-05T17:21:34.114Z,1000.82
2016-06-05T17:22:34.132Z,1000.85
2016-06-05T17:23:34.150Z,1000.86
2016-06-05T17:24:34.278Z,1000.88
2016-06-05T17:25:34.203Z,1000.87
2016-06-05T17:26:34.237Z,1000.91
2016-06-05T17:27:34.255Z,1000.91
2016-06-05T17:28:34.289Z,1000.94
2016-06-05T17:29:34.323Z,1000.94
2016-06-05T17:30:34.326Z,1000.95
2016-06-05T17:31:34.375Z,1000.97
2016-06-05T17:32:34.394Z,1001.01
2016-06-05T17:33:34.412Z,1000.97
2016-06-05T17:34:34.524Z,1000.94
2016-06-05T17:35:34.526Z,1000.94
2016-06-05T17:37:34.516Z,1000.94
2016-06-05T17:38:34.534Z,1000.97
2016-06-05T17:39:34.568Z,1001.01
2016-06-05T17:40:34.587Z,1000.96
2016-06-05T17:41:34.605Z,1000.94
2016-06-05T17:42:34.639Z,1001.01
2016-06-05T17:43:34.674Z,1001
2016-06-05T17:44:34.692Z,1000.99
2016-06-05T17:45:34.725Z,1000.98
2016-06-05T17:46:34.729Z,1001.01
2016-06-05T17:48:34.889Z,1001
2016-06-05T17:49:34.845Z,1001.02
2016-06-05T17:50:34.832Z,1001.07
2016-06-05T17:51:34.851Z,1001.1
2016-06-05T17:52:34.885Z,1001.1
2016-06-05T17:53:34.903Z,1001.15
2016-06-05T17:54:34.938Z,1001.16
2016-06-05T17:55:35.065Z,1001.17
2016-06-05T17:56:34.990Z,1001.21
2016-06-05T17:57:35.007Z,1001.17
2016-06-05T17:58:35.042Z,1001.24
2016-06-05T17:59:35.060Z,1001.23
2016-06-05T18:00:35.079Z,1001.24
2016-06-05T18:01:35.113Z,1001.27
2016-06-05T18:02:35.130Z,1001.26
2016-06-05T18:03:35.165Z,1001.28
2016-06-05T18:04:35.182Z,1001.33
2016-06-05T18:05:35.217Z,1001.36
2016-06-05T18:06:35.235Z,1001.38
2016-06-05T18:07:35.269Z,1001.37
2016-06-05T18:08:35.288Z,1001.43
2016-06-05T18:09:35.321Z,1001.45
2016-06-05T18:10:35.340Z,1001.51
2016-06-05T18:11:35.358Z,1001.5
2016-06-05T18:12:35.392Z,1001.51
2016-06-05T18:13:35.410Z,1001.57
2016-06-05T18:14:35.445Z,1001.59
2016-06-05T18:15:35.462Z,1001.66
2016-06-05T18:16:35.481Z,1001.69
2016-06-05T18:17:35.514Z,1001.67
2016-06-05T18:18:35.548Z,1001.69
2016-06-05T18:19:35.567Z,1001.7
2016-06-05T18:20:35.601Z,1001.74
2016-06-05T18:21:35.620Z,1001.75
2016-06-05T18:22:35.653Z,1001.75
2016-06-05T18:23:35.672Z,1001.73
2016-06-05T18:24:35.705Z,1001.85
2016-06-05T18:25:35.725Z,1001.92
2016-06-05T18:26:35.742Z,1001.94
2016-06-05T18:27:35.776Z,1001.96
2016-06-05T18:28:36.404Z,1001.88
2016-06-05T18:29:35.844Z,1001.9
2016-06-05T18:31:35.880Z,1001.84
2016-06-05T18:32:35.915Z,1001.8
2016-06-05T18:33:35.948Z,1001.76
2016-06-05T18:34:35.966Z,1001.76
2016-06-05T18:35:36.001Z,1001.73
2016-06-05T18:36:36.018Z,1001.79
2016-06-05T18:37:36.053Z,1001.83
2016-06-05T18:38:36.071Z,1001.88
2016-06-05T18:39:36.105Z,1001.86
2016-06-05T18:40:36.140Z,1001.89
2016-06-05T18:41:36.157Z,1001.92
2016-06-05T18:42:36.192Z,1001.88
2016-06-05T18:43:36.584Z,1001.9
2016-06-05T18:44:36.243Z,1002
2016-06-05T18:45:36.262Z,1002.02
2016-06-05T18:46:36.295Z,1002.1
2016-06-05T18:47:36.330Z,1002.1
2016-06-05T18:48:36.347Z,1002.13
2016-06-05T18:49:36.381Z,1002.15
2016-06-05T18:50:36.417Z,1002.18
2016-06-05T18:51:36.434Z,1002.17
2016-06-05T18:52:36.469Z,1002.17
2016-06-05T18:53:36.503Z,1002.17
2016-06-05T18:54:36.520Z,1002.18
2016-06-05T18:55:36.555Z,1002.16
2016-06-05T18:56:36.589Z,1002.15
2016-06-05T18:57:36.607Z,1002.16
2016-06-05T18:58:36.656Z,1002.03
2016-06-05T18:59:36.674Z,1001.98
2016-06-05T19:00:36.708Z,1001.94
2016-06-05T19:01:36.743Z,1001.91
2016-06-05T19:02:36.760Z,1001.88
2016-06-05T19:03:36.779Z,1001.93
2016-06-05T19:04:36.813Z,1001.89
2016-06-05T19:05:36.863Z,1001.92
2016-06-05T19:06:36.866Z,1001.9
2016-06-05T19:07:36.899Z,1001.94
2016-06-05T19:08:36.933Z,1001.93
2016-06-05T19:09:36.952Z,1001.89
2016-06-05T19:10:36.985Z,1001.9
2016-06-05T19:11:37.004Z,1001.85
2016-06-05T19:12:37.037Z,1001.84
2016-06-05T19:13:37.056Z,1001.84
2016-06-05T19:14:37.090Z,1001.86
2016-06-05T19:15:37.109Z,1001.89
2016-06-05T19:16:37.143Z,1001.85
2016-06-05T19:17:37.176Z,1001.84
2016-06-05T19:18:37.194Z,1001.84
2016-06-05T19:19:37.212Z,1001.85
2016-06-05T19:20:37.231Z,1001.85
2016-06-05T19:21:37.264Z,1001.83
2016-06-05T19:22:37.284Z,1001.86
2016-06-05T19:23:37.317Z,1001.89
2016-06-05T19:24:37.336Z,1001.82
2016-06-05T19:25:37.369Z,1001.87
2016-06-05T19:26:37.388Z,1001.86
2016-06-05T19:27:37.438Z,1001.83
2016-06-05T19:28:38.206Z,1001.84
2016-06-05T19:29:37.456Z,1001.87
2016-06-05T19:30:37.474Z,1001.89
2016-06-05T19:31:37.511Z,1001.86
2016-06-05T19:32:37.529Z,1001.87
2016-06-05T19:33:37.563Z,1001.84
2016-06-05T19:34:37.582Z,1001.85
2016-06-05T19:35:37.599Z,1001.87
2016-06-05T19:36:37.633Z,1001.88
2016-06-05T19:37:37.651Z,1001.91
2016-06-05T19:38:37.670Z,1001.91
2016-06-05T19:39:37.704Z,1001.93
2016-06-05T19:40:37.723Z,1001.97
2016-06-05T19:41:37.740Z,1002
2016-06-05T19:42:37.774Z,1001.99
2016-06-05T19:43:37.793Z,1001.98
2016-06-05T19:44:37.812Z,1002.06
2016-06-05T19:45:37.846Z,1002.01
2016-06-05T19:46:37.864Z,1002.04
2016-06-05T19:47:37.881Z,1002.06
2016-06-05T19:48:37.915Z,1002.05
2016-06-05T19:49:37.934Z,1002.07
2016-06-05T19:50:37.953Z,1002.06
2016-06-05T19:51:37.987Z,1002.08
2016-06-05T19:52:38.005Z,1002.11
2016-06-05T19:53:38.038Z,1002.11
2016-06-05T19:54:38.056Z,1002.12
2016-06-05T19:55:38.076Z,1002.12
2016-06-05T19:56:38.094Z,1002.11
2016-06-05T19:58:38.708Z,1002.12
2016-06-05T19:59:38.163Z,1002.12
2016-06-05T20:00:38.183Z,1002.16
2016-06-05T20:01:38.216Z,1002.15
2016-06-05T20:02:38.235Z,1002.16
2016-06-05T20:03:38.252Z,1002.18
2016-06-05T20:04:38.272Z,1002.23
2016-06-05T20:05:38.305Z,1002.22
2016-06-05T20:06:38.324Z,1002.26
2016-06-05T20:07:38.341Z,1002.27
2016-06-05T20:08:38.376Z,1002.29
2016-06-05T20:09:38.393Z,1002.35
2016-06-05T20:10:38.413Z,1002.33
2016-06-05T20:11:38.431Z,1002.34
2016-06-05T20:12:38.465Z,1002.36
2016-06-05T20:13:38.482Z,1002.35
2016-06-05T20:14:38.502Z,1002.37
2016-06-05T20:15:38.520Z,1002.32
2016-06-05T20:16:38.554Z,1002.37
2016-06-05T20:17:38.572Z,1002.39
2016-06-05T20:18:38.589Z,1002.38
2016-06-05T20:19:38.609Z,1002.44
2016-06-05T20:20:38.643Z,1002.49
2016-06-05T20:21:38.661Z,1002.51
2016-06-05T20:22:38.678Z,1002.52
2016-06-05T20:23:38.698Z,1002.48
2016-06-05T20:24:38.731Z,1002.54
2016-06-05T20:25:38.749Z,1002.57
2016-06-05T20:26:38.767Z,1002.6
2016-06-05T20:27:38.803Z,1002.65
2016-06-05T20:28:38.820Z,1002.69
2016-06-05T20:29:38.839Z,1002.7
2016-06-05T20:30:38.857Z,1002.71
2016-06-05T20:31:38.874Z,1002.69
2016-06-05T20:32:38.908Z,1002.68
2016-06-05T20:33:38.928Z,1002.67
2016-06-05T20:34:38.946Z,1002.72
2016-06-05T20:35:38.963Z,1002.72
2016-06-05T20:36:38.998Z,1002.79
2016-06-05T20:43:09.061Z,1002.72
2016-06-05T20:43:16.343Z,1002.84
2016-06-05T20:44:16.846Z,1002.78
2016-06-05T20:45:16.379Z,1002.71
2016-06-05T20:46:16.397Z,1002.75
2016-06-05T20:47:16.431Z,1002.74
2016-06-05T20:48:16.434Z,1002.7
2016-06-05T20:49:16.468Z,1002.75
2016-06-05T20:50:16.487Z,1002.72
2016-06-05T20:51:16.504Z,1002.71
2016-06-05T20:52:16.523Z,1002.72
2016-06-05T20:53:16.557Z,1002.72
2016-06-05T20:54:16.559Z,1002.73
2016-06-05T20:55:16.593Z,1002.72
2016-06-05T20:56:16.612Z,1002.73
